ADDS METAR Data INFO
IDs: Format: Raw Decoded Include TAF

Data at: 0750 UTC 24 May 2018

KLND 240653Z AUTO 24007KT 10SM CLR 12/06 A3001 RMK AO2 SLP110 T01170061 402170056
KLND 240553Z AUTO 35007KT 10SM CLR 12/06 A3000 RMK AO2 SLP107 60000 T01170061 10178 20117 51008
KLND 240453Z AUTO 24005KT 10SM CLR 14/04 A2999 RMK AO2 SLP104 T01390044
KLND 240353Z AUTO 25015KT 10SM SCT085 14/05 A2999 RMK AO2 SLP112 T01440050
KLND 240253Z AUTO 21016G21KT 10SM SCT095 14/05 A2997 RMK AO2 SLP106 60000 T01440050 53008
KLND 240153Z AUTO 21011KT 10SM FEW050 FEW065 BKN090 14/06 A2995 RMK AO2 RAB34E44 SLP106 P0000 T01440061
KLND 240053Z AUTO 15007KT 10SM CLR 16/08 A2994 RMK AO2 SLP104 T01560078
KLND 232353Z AUTO 27011KT 10SM CLR 17/06 A2994 RMK AO2 SLP102 60000 T01720056 10217 20150 50006
KLND 232253Z AUTO 23018G26KT 10SM BKN070 OVC090 16/06 A2997 RMK AO2 PK WND 23040/2216 RAB13E43 SLP115 P0000 T01560056
KLND 232213Z AUTO 22029G40KT 9SM -RA BKN090 16/06 A2993 RMK AO2 PK WND 22040/2213 LTG DSNT SW AND W RAB13 PRESRR P0000 T01560061
KLND 232204Z AUTO 20030G38KT 10SM SQ BKN095 18/06 A2992 RMK AO2 PK WND 20038/2202 LTG DSNT NE AND W T01780056
KLND 232153Z AUTO 22010G21KT 10SM FEW100 22/04 A2990 RMK AO2 LTG DSNT NE SLP077 T02170039
KLND 232124Z AUTO 18009KT 10SM CLR 21/05 A2990 RMK AO2 LTG DSNT ALQDS T02110050
KLND 232101Z AUTO 24011G20KT 10SM VCTS FEW060 SCT085 19/05 A2991 RMK AO2 LTG DSNT E-S T01940050
KLND 232053Z AUTO 20015G20KT 10SM FEW060 BKN085 20/06 A2992 RMK AO2 PK WND 21035/2036 LTG DSNT N AND SE RAB37E48 SLP084 P0000 60000 T02000056 55004
KLND 231953Z AUTO 24011G25KT 10SM CLR 21/04 A2991 RMK AO2 PK WND 23027/1924 SLP079 T02110044
KLND 231853Z AUTO 23014G19KT 10SM CLR 21/05 A2991 RMK AO2 PK WND 23026/1811 SLP080 T02060050
KLND 231753Z AUTO 33011G24KT 300V360 10SM FEW080 19/08 A2993 RMK AO2 SLP089 T01890078 10194 20061 56012
KLND 231653Z AUTO 03006KT 10SM CLR 17/11 A2994 RMK AO2 SLP095 T01670111
KLND 231553Z AUTO 00000KT 10SM FEW075 13/08 A2996 RMK AO2 SLP108 T01330083
KLND 231453Z AUTO VRB04KT 10SM CLR 12/08 A2997 RMK AO2 SLP116 T01170083 58003
KLND 231353Z AUTO 10003KT 10SM CLR 09/08 A2998 RMK AO2 SLP124 T00940078
KLND 231316Z AUTO 00000KT 10SM SCT024 07/06 A2999 RMK AO2 T00720061
KLND 231253Z AUTO 11003KT 10SM BKN024 07/06 A2999 RMK AO2 SLP130 T00670056
KLND 231245Z AUTO 23004KT 10SM BKN024 07/06 A2999 RMK AO2 T00670056
KLND 231233Z AUTO 24004KT 10SM FEW015 SCT024 07/05 A2999 RMK AO2 T00670050
KLND 231219Z AUTO 23006KT 10SM SCT015 BKN023 06/05 A2999 RMK AO2 T00610050
KLND 231153Z AUTO 25007KT 10SM FEW014 06/05 A2998 RMK AO2 SLP128 70061 T00610050 10094 20056 53001
KLND 231121Z AUTO 26006KT 10SM SCT001 06/06 A2998 RMK AO2 T00610056
KLND 231115Z AUTO 27006KT 2 1/2SM BR BKN001 06/06 A2998 RMK AO2 T00610061
KLND 231053Z AUTO 27006KT 1/2SM FG VV002 07/07 A2997 RMK AO2 SLP125 T00670067
KLND 231011Z AUTO 31006KT 1/4SM FG VV001 07/07 A2997 RMK AO2 T00670067
KLND 231004Z AUTO 30005KT 1SM BR VV001 07/06 A2997 RMK AO2 T00670061
KLND 231002Z AUTO 31005KT 2 1/2SM BR FEW001 07/06 A2997 RMK AO2 T00670061
KLND 230953Z AUTO 30004KT 10SM CLR 07/06 A2998 RMK AO2 SLP111 T00720061
KLND 230853Z AUTO 00000KT 10SM CLR 08/07 A2998 RMK AO2 SLP108 T00830067 58012
KLND 230753Z AUTO 13005KT 10SM BKN070 08/08 A3000 RMK AO2 SLP116 T00830078
KLND 230653Z AUTO 00000KT 10SM BKN031 OVC095 09/08 A3001 RMK AO2 SLP120 T00940078 401940061
KLND 230553Z AUTO 00000KT 10SM SCT032 BKN039 OVC085 09/08 A3002 RMK AO2 RAE48 SLP125 P0001 60051 T00940083 10128 20094 58005
KLND 230453Z AUTO 01005KT 10SM -RA OVC035 09/08 A3003 RMK AO2 RAE0357B49 SLP130 P0000 T00940078
KLND 230353Z AUTO 26007KT 10SM -RA OVC055 10/07 A3003 RMK AO2 SLP134 P0012 T01000067
KLND 230253Z AUTO 27008KT 5SM -RA OVC055 10/07 A3004 RMK AO2 SLP140 P0018 60038 T01000072 50008
KLND 230222Z AUTO 23009KT 3SM RA FEW021 FEW037 OVC049 10/07 A3004 RMK AO2 P0011 T01000072
KLND 230153Z AUTO 20007KT 2SM RA BR FEW021 BKN033 OVC045 11/09 A3004 RMK AO2 RAB06 SLP143 P0019 T01060094
KLND 230119Z AUTO 00000KT 1 3/4SM -RA BR BKN034 OVC044 12/10 A3002 RMK AO2 RAB06 P0001 T01220100
KLND 230053Z AUTO 27006KT 10SM BKN049 OVC060 12/09 A3001 RMK AO2 RAE39 SLP130 P0001 T01220094
KLND 222353Z AUTO 29006KT 8SM -RA BKN065 OVC080 12/09 A3001 RMK AO2 LTG DSNT SW-NW TSB03E18 SLP132 P0010 60010 T01220089 10194 20111 51019
KLND 222324Z AUTO 03007KT 4SM -RA BKN060 OVC075 11/08 A2999 RMK AO2 LTG DSNT SW AND NW TSB03E18 P0008 T01110083
KLND 222309Z AUTO 12010KT 3SM TSRA BR FEW042 OVC055 11/09 A2999 RMK AO2 LTG DSNT SW-N TSB03 P0004 T01110089
KLND 222300Z AUTO 13013KT 4SM RA SCT042 OVC060 12/09 A3000 RMK AO2 LTG DSNT ALQDS P0002 T01170089
KLND 222253Z AUTO 14016KT 10SM VCTS -RA SCT046 OVC060 12/09 A3000 RMK AO2 PK WND 14029/2224 LTG DSNT ALQDS RAB26 SLP131 P0000 T01170089
KLND 222227Z AUTO 14020G29KT 10SM VCTS -RA SCT050 BKN065 OVC095 16/11 A2997 RMK AO2 PK WND 14029/2224 LTG DSNT ALQDS RAB26 P0000 T01560106
KLND 222153Z AUTO 07004KT 10SM BKN095 OVC120 18/10 A2996 RMK AO2 LTG DSNT E AND SE SLP103 T01780100
KLND 222053Z AUTO 34008KT 10SM CLR 19/08 A2995 RMK AO2 LTG DSNT SE SLP093 T01890083 58023
KLND 221953Z AUTO 07005KT 10SM CLR 18/09 A2998 RMK AO2 SLP104 T01830089